Time;durP1;ratioP1;P1;durP2;ratioP2;P2;SDS_P1;SDS_P2;PMS_P1;PMS_P2;Temp;Humidity;BMP_temperature;BMP_pressure;BME280_temperature;BME280_humidity;BME280_pressure;Samples;Min_cycle;Max_cycle;Signal;HPM_P1;HPM_P2
2022/10/10 00:02:15;;;;;;;73.75;55.10;;;13.80;99.90;;;;;;5080830;28;20044;-68
2022/10/10 00:04:43;;;;;;;60.28;46.08;;;13.80;99.90;;;;;;5088893;28;20032;-67
2022/10/10 00:07:09;;;;;;;55.75;42.95;;;13.80;99.90;;;;;;5092375;28;20466;-68
2022/10/10 00:09:35;;;;;;;46.50;36.53;;;13.70;99.90;;;;;;5089028;28;20036;-67
2022/10/10 00:12:01;;;;;;;59.03;45.53;;;13.70;99.90;;;;;;5089760;28;20398;-67
2022/10/10 00:14:26;;;;;;;48.30;36.17;;;13.70;99.90;;;;;;5082100;28;20024;-69
2022/10/10 00:16:52;;;;;;;40.88;28.88;;;13.70;99.90;;;;;;5089613;28;20016;-67
2022/10/10 00:19:18;;;;;;;30.92;23.42;;;13.70;99.90;;;;;;5079812;28;20055;-68
2022/10/10 00:21:44;;;;;;;27.77;22.95;;;13.70;99.90;;;;;;5072729;28;20071;-68
2022/10/10 00:24:10;;;;;;;30.90;23.77;;;13.70;99.90;;;;;;5072983;28;20513;-68
2022/10/10 00:26:35;;;;;;;33.63;22.95;;;13.70;99.90;;;;;;5071794;28;20040;-68
2022/10/10 00:29:01;;;;;;;37.60;22.80;;;13.70;99.90;;;;;;5076034;28;20020;-68
2022/10/10 00:31:27;;;;;;;28.17;21.25;;;13.70;99.90;;;;;;5077831;28;20050;-67
2022/10/10 00:33:53;;;;;;;32.08;23.88;;;13.70;99.90;;;;;;5072958;28;20475;-68
2022/10/10 00:36:20;;;;;;;32.15;21.65;;;13.70;99.90;;;;;;5073073;28;20041;-68
2022/10/10 00:38:47;;;;;;;29.60;20.27;;;13.70;99.90;;;;;;5076199;28;20616;-70
2022/10/10 00:41:14;;;;;;;29.42;20.27;;;13.60;99.90;;;;;;5075379;28;20021;-69
2022/10/10 00:43:40;;;;;;;30.52;20.75;;;13.70;99.90;;;;;;5077809;28;20028;-68
2022/10/10 00:46:08;;;;;;;25.75;20.13;;;13.70;99.90;;;;;;5086963;28;20462;-70
2022/10/10 00:48:42;;;;;;;37.75;22.95;;;13.70;99.90;;;;;;5074658;28;20029;-70
2022/10/10 00:51:13;;;;;;;27.23;17.27;;;13.70;99.90;;;;;;5075636;28;20040;-71
2022/10/10 00:53:44;;;;;;;29.48;18.88;;;13.60;99.90;;;;;;5075224;28;20021;-71
2022/10/10 00:56:16;;;;;;;25.40;18.48;;;13.60;99.90;;;;;;5074980;28;20036;-71
2022/10/10 00:58:47;;;;;;;24.52;18.98;;;13.60;99.90;;;;;;5079359;28;20060;-71
2022/10/10 01:01:14;;;;;;;27.75;18.42;;;13.60;99.90;;;;;;5074670;28;20359;-72
2022/10/10 01:03:41;;;;;;;27.00;19.20;;;13.50;99.90;;;;;;5076067;28;20371;-70
2022/10/10 01:06:08;;;;;;;27.60;18.02;;;13.50;99.90;;;;;;5076385;28;20363;-72
2022/10/10 01:08:35;;;;;;;24.70;17.05;;;13.50;99.90;;;;;;5075833;28;20395;-71
2022/10/10 01:11:20;;;;;;;24.48;16.45;;;13.50;99.90;;;;;;5083967;28;20490;-71
2022/10/10 01:14:08;;;;;;;25.55;16.95;;;13.50;99.90;;;;;;5082034;28;20377;-72
2022/10/10 01:16:44;;;;;;;23.80;16.75;;;13.50;99.90;;;;;;5093625;28;20112;-70
2022/10/10 01:19:44;;;;;;;23.92;16.10;;;13.40;99.90;;;;;;5102902;28;20093;-70
2022/10/10 01:22:36;;;;;;;22.63;17.80;;;13.50;99.90;;;;;;5078474;28;20482;-71
2022/10/10 01:25:27;;;;;;;22.45;15.93;;;13.40;99.90;;;;;;5071979;28;20440;-70
2022/10/10 01:28:11;;;;;;;25.55;17.02;;;13.30;99.90;;;;;;5070584;28;20028;-70
2022/10/10 01:30:39;;;;;;;23.75;16.17;;;13.30;99.90;;;;;;5071650;28;20500;-71
2022/10/10 01:33:11;;;;;;;33.47;19.33;;;13.30;99.90;;;;;;5071357;28;20021;-69
2022/10/10 01:35:55;;;;;;;27.05;18.13;;;13.30;99.90;;;;;;5071924;28;20060;-70
2022/10/10 01:38:28;;;;;;;26.52;18.08;;;13.30;99.90;;;;;;5071706;28;20036;-71
2022/10/10 01:41:20;;;;;;;23.92;17.30;;;13.30;99.90;;;;;;5071968;28;20115;-70
2022/10/10 01:43:55;;;;;;;24.70;16.33;;;13.20;99.90;;;;;;5071160;28;20033;-70
2022/10/10 01:46:20;;;;;;;24.77;16.15;;;13.30;99.90;;;;;;5071952;28;20127;-69
2022/10/10 01:48:49;;;;;;;24.88;16.83;;;13.30;99.90;;;;;;5071835;28;20048;-68
2022/10/10 01:52:03;;;;;;;21.50;15.30;;;13.30;99.90;;;;;;5071867;28;20068;-68
2022/10/10 01:55:00;;;;;;;17.27;12.07;;;13.20;99.90;;;;;;5058206;28;20135;-68
2022/10/10 01:57:58;;;;;;;21.00;15.27;;;13.10;99.90;;;;;;5069645;28;20025;-67
2022/10/10 02:00:24;;;;;;;28.92;18.85;;;13.00;99.90;;;;;;5069550;28;20067;-68
2022/10/10 02:03:16;;;;;;;27.10;18.52;;;13.00;99.90;;;;;;5072428;28;20028;-67
2022/10/10 02:06:15;;;;;;;26.80;17.70;;;13.00;99.90;;;;;;5073142;28;20431;-69
2022/10/10 02:09:03;;;;;;;27.02;17.83;;;13.00;99.90;;;;;;5057855;28;20592;-69
2022/10/10 02:11:37;;;;;;;25.40;18.67;;;13.00;99.90;;;;;;5055450;28;20050;-69
2022/10/10 02:14:30;;;;;;;28.45;18.42;;;13.00;99.90;;;;;;5075972;28;20027;-71
2022/10/10 02:16:59;;;;;;;25.80;16.92;;;13.00;99.90;;;;;;5063162;28;20469;-71
2022/10/10 02:19:27;;;;;;;24.33;17.27;;;13.00;99.90;;;;;;5058169;28;20091;-72
2022/10/10 02:21:55;;;;;;;26.02;17.98;;;13.00;99.90;;;;;;5076014;28;20052;-69
2022/10/10 02:24:23;;;;;;;23.90;16.63;;;12.90;99.90;;;;;;5066290;28;20033;-71
2022/10/10 02:27:07;;;;;;;22.70;15.43;;;12.90;99.90;;;;;;5073801;28;20052;-70
2022/10/10 02:29:37;;;;;;;24.73;16.27;;;12.90;99.90;;;;;;5057990;28;20471;-69
2022/10/10 02:32:38;;;;;;;20.25;14.05;;;12.90;99.90;;;;;;5056855;28;20029;-67
2022/10/10 02:35:14;;;;;;;24.05;15.77;;;12.90;99.90;;;;;;5032831;28;20033;-69
2022/10/10 02:37:42;;;;;;;21.15;15.40;;;12.90;99.90;;;;;;5027913;28;20052;-68
2022/10/10 02:40:13;;;;;;;21.40;15.18;;;12.80;99.90;;;;;;5037034;28;20029;-68
2022/10/10 02:42:40;;;;;;;20.73;14.60;;;12.80;99.90;;;;;;5052848;28;20028;-69
2022/10/10 02:45:07;;;;;;;21.58;15.30;;;12.70;99.90;;;;;;5054415;28;20076;-69
2022/10/10 02:47:33;;;;;;;24.05;15.68;;;12.70;99.90;;;;;;5052733;28;20033;-69
2022/10/10 02:49:58;;;;;;;23.17;14.88;;;12.70;99.90;;;;;;5052338;28;20115;-68
2022/10/10 02:52:24;;;;;;;22.45;14.77;;;12.70;99.90;;;;;;5052311;28;20040;-68
2022/10/10 02:54:50;;;;;;;26.60;15.75;;;12.70;99.90;;;;;;5052610;28;20029;-69
2022/10/10 02:57:16;;;;;;;22.70;14.38;;;12.60;99.90;;;;;;5052020;28;20092;-70
2022/10/10 02:59:42;;;;;;;23.27;15.98;;;12.60;99.90;;;;;;5049233;28;20463;-70
2022/10/10 03:02:08;;;;;;;25.05;17.90;;;12.60;99.90;;;;;;5046261;28;20043;-69
2022/10/10 03:04:35;;;;;;;25.27;15.73;;;12.60;99.90;;;;;;5041364;28;20074;-68
2022/10/10 03:07:03;;;;;;;26.35;14.98;;;12.60;99.90;;;;;;5037342;28;20029;-70
2022/10/10 03:09:30;;;;;;;23.08;14.63;;;12.50;99.90;;;;;;5038033;28;20522;-69
2022/10/10 03:11:56;;;;;;;23.52;14.02;;;12.50;99.90;;;;;;5075163;28;20111;-69
2022/10/10 03:14:23;;;;;;;21.00;14.13;;;12.30;99.90;;;;;;5057876;28;20383;-70
2022/10/10 03:16:49;;;;;;;23.05;14.43;;;12.20;99.90;;;;;;5062263;28;20444;-68
2022/10/10 03:19:15;;;;;;;19.95;13.88;;;12.10;99.90;;;;;;5061599;28;20459;-69
2022/10/10 03:21:42;;;;;;;23.30;14.70;;;12.10;99.90;;;;;;5086186;28;20024;-68
2022/10/10 03:24:08;;;;;;;20.73;13.30;;;12.10;99.90;;;;;;5087187;28;20024;-69
2022/10/10 03:26:35;;;;;;;20.45;12.85;;;12.10;99.90;;;;;;5075420;28;20115;-68
2022/10/10 03:29:02;;;;;;;18.80;12.60;;;12.00;99.90;;;;;;5082320;28;20398;-68
2022/10/10 03:31:28;;;;;;;21.90;14.02;;;12.00;99.90;;;;;;5088343;28;20236;-68
2022/10/10 03:33:55;;;;;;;21.58;12.05;;;11.90;99.90;;;;;;5082464;28;20060;-68
2022/10/10 03:36:22;;;;;;;21.13;11.52;;;11.90;99.90;;;;;;5076690;28;20078;-67
2022/10/10 03:38:48;;;;;;;19.27;11.07;;;11.90;99.90;;;;;;5086261;28;20048;-68
2022/10/10 03:41:15;;;;;;;18.27;11.93;;;11.90;99.90;;;;;;5086065;28;20024;-69
2022/10/10 03:43:41;;;;;;;17.02;10.70;;;12.00;99.90;;;;;;5074721;28;20031;-69
2022/10/10 03:46:07;;;;;;;16.85;10.40;;;12.00;99.90;;;;;;5075092;28;20020;-68
2022/10/10 03:48:34;;;;;;;16.42;9.90;;;12.00;99.90;;;;;;5085819;28;20414;-69
2022/10/10 03:51:00;;;;;;;20.13;10.20;;;12.10;99.90;;;;;;5078204;28;20391;-69
2022/10/10 03:53:26;;;;;;;17.00;10.65;;;12.10;99.90;;;;;;5083178;28;20419;-70
2022/10/10 03:55:55;;;;;;;15.77;10.43;;;12.10;99.90;;;;;;5080799;28;20024;-69
2022/10/10 03:58:22;;;;;;;19.38;10.18;;;12.10;99.90;;;;;;5075019;28;20363;-71
2022/10/10 04:00:56;;;;;;;15.68;9.07;;;12.10;99.90;;;;;;5076442;28;20790;-69
2022/10/10 04:03:24;;;;;;;15.57;8.68;;;12.10;99.90;;;;;;5082613;28;20095;-69
2022/10/10 04:05:50;;;;;;;17.27;9.60;;;12.10;99.90;;;;;;5088791;28;20024;-69
2022/10/10 04:08:17;;;;;;;14.88;8.77;;;12.10;99.90;;;;;;5086696;28;20039;-70
2022/10/10 04:10:48;;;;;;;17.30;10.48;;;12.10;99.90;;;;;;5110479;28;20035;-70
2022/10/10 04:13:14;;;;;;;16.60;10.25;;;12.10;99.90;;;;;;5090099;28;20024;-70
2022/10/10 04:15:40;;;;;;;17.55;9.60;;;12.10;99.90;;;;;;5107699;28;20373;-70
2022/10/10 04:18:06;;;;;;;17.80;10.70;;;12.10;99.90;;;;;;5111782;28;20020;-70
2022/10/10 04:20:32;;;;;;;18.25;10.35;;;12.10;99.90;;;;;;5087628;28;20103;-70
2022/10/10 04:22:58;;;;;;;18.15;11.68;;;12.10;99.90;;;;;;5109064;28;20474;-70
2022/10/10 04:25:24;;;;;;;18.77;11.10;;;12.00;99.90;;;;;;5111840;28;20130;-70
2022/10/10 04:27:50;;;;;;;17.75;10.57;;;12.10;99.90;;;;;;5111390;28;20492;-71
2022/10/10 04:30:16;;;;;;;15.00;9.70;;;12.00;99.90;;;;;;5074869;28;20032;-69
2022/10/10 04:32:42;;;;;;;17.70;10.35;;;12.00;99.90;;;;;;5106926;28;20488;-69
2022/10/10 04:35:08;;;;;;;18.30;10.48;;;12.00;99.90;;;;;;5092854;28;20031;-69
2022/10/10 04:37:34;;;;;;;17.52;10.82;;;12.00;99.90;;;;;;5096564;28;20035;-70
2022/10/10 04:40:00;;;;;;;19.35;10.82;;;12.00;99.90;;;;;;5101067;28;20063;-70
2022/10/10 04:42:26;;;;;;;17.08;9.35;;;11.90;99.90;;;;;;5107132;28;20473;-68
2022/10/10 04:44:52;;;;;;;17.88;10.38;;;12.00;99.90;;;;;;5097160;28;20028;-69
2022/10/10 04:47:18;;;;;;;18.20;11.13;;;12.00;99.90;;;;;;5091971;28;20039;-70
2022/10/10 04:49:44;;;;;;;21.08;13.20;;;12.00;99.90;;;;;;5091420;28;20087;-71
2022/10/10 04:52:11;;;;;;;20.48;12.98;;;11.80;99.90;;;;;;5079469;28;20373;-70
2022/10/10 04:54:37;;;;;;;27.73;15.50;;;11.90;99.90;;;;;;5107375;28;20023;-69
2022/10/10 04:57:03;;;;;;;26.35;16.15;;;11.70;99.90;;;;;;5097867;28;20012;-69
2022/10/10 04:59:30;;;;;;;22.30;14.82;;;11.70;99.90;;;;;;5096267;27;20026;-69
2022/10/10 05:01:56;;;;;;;25.63;15.63;;;11.80;99.90;;;;;;5094300;28;20389;-68
2022/10/10 05:04:22;;;;;;;26.13;16.42;;;11.80;99.90;;;;;;5094755;28;20062;-71
2022/10/10 05:06:49;;;;;;;26.33;16.00;;;11.90;99.90;;;;;;5114177;28;20099;-71
2022/10/10 05:09:16;;;;;;;23.15;14.48;;;11.80;99.90;;;;;;5100296;28;20355;-70
2022/10/10 05:11:43;;;;;;;33.50;16.73;;;11.90;99.90;;;;;;5087217;28;20024;-71
2022/10/10 05:14:09;;;;;;;30.85;18.40;;;11.90;99.90;;;;;;5092509;28;20091;-71
2022/10/10 05:16:35;;;;;;;30.83;20.25;;;12.00;99.90;;;;;;5054312;28;20028;-70
2022/10/10 05:19:01;;;;;;;36.60;21.15;;;12.00;99.90;;;;;;5094178;28;20047;-71
2022/10/10 05:21:27;;;;;;;40.92;25.15;;;12.10;99.90;;;;;;5107701;28;20139;-71
2022/10/10 05:23:54;;;;;;;56.92;30.52;;;11.90;99.90;;;;;;5095239;28;20357;-71
2022/10/10 05:26:20;;;;;;;50.60;28.55;;;11.60;99.90;;;;;;5076306;28;20082;-71
2022/10/10 05:28:47;;;;;;;50.58;28.77;;;11.70;99.90;;;;;;5073724;28;20036;-71
2022/10/10 05:31:13;;;;;;;50.78;31.00;;;11.70;99.90;;;;;;5077111;28;20044;-71
2022/10/10 05:33:39;;;;;;;54.72;30.35;;;11.70;99.90;;;;;;5094304;28;20028;-71
2022/10/10 05:36:11;;;;;;;57.17;34.00;;;11.60;99.90;;;;;;5093611;28;20032;-71
2022/10/10 05:38:38;;;;;;;62.35;33.55;;;11.60;99.90;;;;;;5100058;28;20028;-71
2022/10/10 05:41:05;;;;;;;55.63;33.95;;;11.60;99.90;;;;;;5085602;28;20016;-71
2022/10/10 05:43:31;;;;;;;56.13;35.78;;;11.70;99.90;;;;;;5080460;28;20040;-72
2022/10/10 05:45:57;;;;;;;62.35;37.40;;;11.80;99.90;;;;;;5079339;28;20059;-71
2022/10/10 05:48:23;;;;;;;56.58;36.38;;;11.80;99.90;;;;;;5096248;28;20039;-71
2022/10/10 05:50:55;;;;;;;67.22;39.95;;;11.80;99.90;;;;;;5095881;28;20154;-71
2022/10/10 05:53:22;;;;;;;102.80;45.75;;;11.90;99.90;;;;;;5109615;28;20024;-71
2022/10/10 05:55:48;;;;;;;60.13;38.83;;;11.70;99.90;;;;;;5095846;28;20020;-71
2022/10/10 05:58:14;;;;;;;89.28;45.50;;;11.80;99.90;;;;;;5095881;28;20021;-71
2022/10/10 06:00:42;;;;;;;74.30;45.30;;;11.70;99.90;;;;;;5099820;28;20031;-71
2022/10/10 06:03:12;;;;;;;61.35;42.90;;;11.70;99.90;;;;;;5081888;28;20392;-73
2022/10/10 06:05:40;;;;;;;117.22;51.42;;;11.90;99.90;;;;;;5099519;28;20028;-73
2022/10/10 06:08:07;;;;;;;112.72;53.97;;;11.80;99.90;;;;;;5099548;28;20670;-72
2022/10/10 06:10:35;;;;;;;82.93;45.72;;;11.80;99.90;;;;;;5074812;28;20031;-71
2022/10/10 06:13:01;;;;;;;72.57;43.42;;;11.90;99.90;;;;;;5095767;28;20020;-72
2022/10/10 06:15:26;;;;;;;66.13;43.53;;;12.00;99.90;;;;;;5105069;28;20422;-72
2022/10/10 06:17:52;;;;;;;72.72;46.05;;;12.10;99.90;;;;;;5107998;28;20031;-72
2022/10/10 06:20:18;;;;;;;59.75;43.10;;;12.10;99.90;;;;;;5101538;28;20040;-71
2022/10/10 06:22:44;;;;;;;58.72;41.50;;;12.20;99.90;;;;;;5077286;28;20342;-71
2022/10/10 06:25:10;;;;;;;67.88;44.25;;;12.30;99.90;;;;;;5077415;28;20091;-72
2022/10/10 06:27:36;;;;;;;71.45;44.35;;;12.20;99.90;;;;;;5100744;28;20024;-72
2022/10/10 06:30:02;;;;;;;66.95;46.38;;;12.20;99.90;;;;;;5104150;28;20127;-72
2022/10/10 06:32:28;;;;;;;56.60;42.25;;;12.20;99.90;;;;;;5095327;28;20756;-71
2022/10/10 06:34:53;;;;;;;61.13;44.13;;;12.30;99.90;;;;;;5095240;28;20028;-71
2022/10/10 06:37:19;;;;;;;57.47;44.13;;;12.40;99.90;;;;;;5094751;28;20031;-72
2022/10/10 06:39:45;;;;;;;78.22;46.00;;;12.40;99.90;;;;;;5093720;28;20409;-71
2022/10/10 06:42:11;;;;;;;63.15;44.78;;;12.40;99.90;;;;;;5092350;28;20028;-71
2022/10/10 06:44:36;;;;;;;74.45;48.13;;;12.40;99.90;;;;;;5075530;28;20062;-72
2022/10/10 06:47:02;;;;;;;109.18;51.33;;;12.60;99.90;;;;;;5092320;28;20024;-71
2022/10/10 06:49:28;;;;;;;130.18;56.45;;;12.40;99.90;;;;;;5093948;28;20127;-72
2022/10/10 06:51:54;;;;;;;64.07;43.08;;;12.30;99.90;;;;;;5094801;28;20110;-72
2022/10/10 06:54:20;;;;;;;73.95;49.47;;;12.50;99.90;;;;;;5092175;28;20395;-72
2022/10/10 06:56:46;;;;;;;69.70;46.85;;;12.60;99.90;;;;;;5092360;28;20024;-72
2022/10/10 06:59:11;;;;;;;64.90;45.03;;;12.80;99.90;;;;;;5094491;28;20584;-72
2022/10/10 07:01:37;;;;;;;82.82;58.35;;;12.90;99.90;;;;;;5093907;28;20500;-72
2022/10/10 07:04:04;;;;;;;58.33;45.08;;;12.90;99.90;;;;;;5093344;28;20382;-72
2022/10/10 07:06:30;;;;;;;60.17;44.38;;;12.90;99.90;;;;;;5093705;28;20020;-72
2022/10/10 07:08:57;;;;;;;65.38;44.80;;;13.00;99.90;;;;;;5094047;28;20024;-72
2022/10/10 07:11:24;;;;;;;64.72;43.75;;;13.10;99.90;;;;;;5093094;28;20105;-72
2022/10/10 07:13:51;;;;;;;62.83;43.85;;;13.20;99.90;;;;;;5093762;28;20030;-72
2022/10/10 07:16:17;;;;;;;64.78;45.63;;;13.30;99.90;;;;;;5108179;28;20365;-71
2022/10/10 07:18:43;;;;;;;59.03;43.92;;;13.40;99.90;;;;;;5093889;28;20020;-72
2022/10/10 07:21:09;;;;;;;60.40;44.30;;;13.40;99.90;;;;;;5093763;28;20047;-72
2022/10/10 07:23:36;;;;;;;65.53;45.47;;;13.40;99.90;;;;;;5094035;28;20482;-72
2022/10/10 07:26:09;;;;;;;58.75;44.17;;;13.30;99.90;;;;;;5093744;28;20020;-72
2022/10/10 07:28:35;;;;;;;75.28;47.85;;;13.40;99.90;;;;;;5093538;28;20103;-72
2022/10/10 07:31:04;;;;;;;72.93;48.55;;;13.20;99.90;;;;;;5093550;28;20028;-71
2022/10/10 07:33:33;;;;;;;78.63;49.42;;;13.30;99.90;;;;;;5107832;28;20012;-71
2022/10/10 07:35:58;;;;;;;73.72;51.40;;;13.10;99.90;;;;;;5093200;28;20036;-71
2022/10/10 07:38:25;;;;;;;74.40;53.38;;;13.20;99.90;;;;;;5093170;28;20027;-72
2022/10/10 07:40:51;;;;;;;79.78;53.60;;;13.30;99.90;;;;;;5093814;28;20012;-71
2022/10/10 07:43:17;;;;;;;79.13;51.05;;;13.30;99.90;;;;;;5107627;28;20073;-72
2022/10/10 07:45:43;;;;;;;76.82;50.47;;;13.30;99.90;;;;;;5100391;28;20028;-72
2022/10/10 07:48:08;;;;;;;77.85;52.40;;;13.30;99.90;;;;;;5101316;28;20441;-72
2022/10/10 07:50:34;;;;;;;81.05;55.05;;;13.30;99.90;;;;;;5093358;28;20402;-72
2022/10/10 07:53:00;;;;;;;86.60;56.28;;;13.20;99.90;;;;;;5092929;28;20462;-71
2022/10/10 07:55:26;;;;;;;90.43;59.50;;;13.10;99.90;;;;;;5093299;28;20370;-72
2022/10/10 07:57:53;;;;;;;71.00;51.00;;;13.20;99.90;;;;;;5093344;28;20039;-72
2022/10/10 08:00:19;;;;;;;76.68;52.97;;;13.30;99.90;;;;;;5074425;28;20055;-72
2022/10/10 08:02:45;;;;;;;77.13;54.72;;;13.30;99.90;;;;;;5103843;28;20020;-72
2022/10/10 08:05:12;;;;;;;74.40;51.25;;;13.30;99.90;;;;;;5104381;28;20279;-72
2022/10/10 08:07:38;;;;;;;78.82;53.95;;;13.30;99.90;;;;;;5096520;28;20119;-71
2022/10/10 08:10:07;;;;;;;76.35;52.88;;;13.50;99.90;;;;;;5097584;28;20430;-74
2022/10/10 08:12:33;;;;;;;74.57;51.20;;;13.60;99.90;;;;;;5097365;28;20080;-72
2022/10/10 08:14:59;;;;;;;77.57;55.67;;;13.80;99.90;;;;;;5084993;28;20102;-71
2022/10/10 08:17:26;;;;;;;75.35;52.13;;;13.90;99.90;;;;;;5106115;28;20396;-71
2022/10/10 08:19:52;;;;;;;70.90;51.47;;;14.10;99.90;;;;;;5087461;28;20152;-70
2022/10/10 08:22:19;;;;;;;67.43;49.85;;;14.30;99.90;;;;;;5060190;28;20381;-74
2022/10/10 08:24:45;;;;;;;67.63;49.40;;;14.40;99.90;;;;;;5077552;28;20028;-72
2022/10/10 08:27:14;;;;;;;65.43;46.63;;;14.40;99.90;;;;;;5059426;28;20091;-72
2022/10/10 08:29:41;;;;;;;69.97;49.28;;;14.50;99.90;;;;;;5059489;28;20425;-72
2022/10/10 08:32:08;;;;;;;72.55;54.38;;;14.60;99.90;;;;;;5084722;28;20363;-73
2022/10/10 08:34:34;;;;;;;76.68;54.75;;;14.50;99.90;;;;;;5077676;28;20389;-72
2022/10/10 08:37:00;;;;;;;75.85;55.30;;;14.30;99.90;;;;;;5073059;28;20016;-71
2022/10/10 08:39:26;;;;;;;76.68;53.63;;;14.30;99.90;;;;;;5072501;28;20033;-72
2022/10/10 08:42:00;;;;;;;76.53;52.75;;;14.40;99.90;;;;;;5072084;28;20024;-72
2022/10/10 08:44:43;;;;;;;74.72;52.65;;;14.20;99.90;;;;;;5074626;28;20029;-72
2022/10/10 08:47:33;;;;;;;68.90;49.63;;;14.30;99.90;;;;;;5076256;28;20024;-71
2022/10/10 08:50:11;;;;;;;66.30;51.33;;;14.40;99.90;;;;;;5008029;28;20462;-72
2022/10/10 08:52:49;;;;;;;65.10;48.20;;;14.40;99.90;;;;;;5014228;28;20440;-72
2022/10/10 08:55:33;;;;;;;64.20;47.95;;;14.60;99.90;;;;;;4984183;28;20447;-73
2022/10/10 08:58:20;;;;;;;62.70;48.22;;;14.60;99.90;;;;;;5014568;28;20451;-72
2022/10/10 09:01:01;;;;;;;64.47;44.67;;;15.00;99.90;;;;;;5015237;28;20530;-72
2022/10/10 09:03:36;;;;;;;74.00;48.47;;;15.10;99.90;;;;;;5012846;28;20037;-72
2022/10/10 09:06:18;;;;;;;60.80;42.45;;;15.30;99.90;;;;;;4998673;28;20041;-71
2022/10/10 09:09:07;;;;;;;58.47;43.42;;;15.40;99.90;;;;;;5014206;28;20431;-71
2022/10/10 09:11:39;;;;;;;58.28;42.65;;;15.20;99.90;;;;;;4997825;28;20140;-72
2022/10/10 09:14:13;;;;;;;;;;;14.90;99.90;;;;;;5013288;28;20042;-72
2022/10/10 09:17:08;;;;;;;48.15;38.15;;;15.00;99.90;;;;;;5006707;28;19997;-72
2022/10/10 09:19:54;;;;;;;54.28;37.67;;;15.20;99.90;;;;;;5008843;28;20052;-74
2022/10/10 09:22:28;;;;;;;54.25;37.20;;;15.30;99.90;;;;;;5033726;28;20049;-72
2022/10/10 09:25:06;;;;;;;57.30;38.45;;;15.50;99.90;;;;;;5034051;28;20029;-72
2022/10/10 09:27:39;;;;;;;49.95;35.55;;;15.80;99.90;;;;;;5083326;28;20109;-72
2022/10/10 09:30:06;;;;;;;52.35;36.88;;;16.00;99.90;;;;;;5107989;28;20032;-72
2022/10/10 09:32:42;;;;;;;49.22;38.42;;;16.10;99.90;;;;;;5094028;28;20372;-72
2022/10/10 09:35:29;;;;;;;51.85;35.60;;;16.10;99.90;;;;;;5095684;28;20024;-72
2022/10/10 09:38:07;;;;;;;55.17;38.03;;;15.80;99.90;;;;;;5095614;28;20463;-72
2022/10/10 09:40:37;;;;;;;49.28;36.67;;;15.70;99.90;;;;;;5104080;28;20024;-69
2022/10/10 09:43:20;;;;;;;55.72;38.60;;;15.50;99.90;;;;;;5096456;28;20059;-69
2022/10/10 09:45:50;;;;;;;;;;;15.70;99.90;;;;;;5092751;28;20536;-69
2022/10/10 09:48:15;;;;;;;48.10;33.97;;;15.40;99.90;;;;;;5092204;28;20365;-70
2022/10/10 09:50:41;;;;;;;48.35;34.65;;;15.90;99.90;;;;;;5091868;28;20048;-69
2022/10/10 09:53:15;;;;;;;48.20;37.03;;;15.90;99.90;;;;;;5091826;28;20023;-69
2022/10/10 09:55:43;;;;;;;55.65;38.63;;;16.30;99.90;;;;;;5092003;28;20060;-70
2022/10/10 09:58:12;;;;;;;44.85;33.88;;;16.50;99.90;;;;;;5091866;28;20047;-69
2022/10/10 10:00:38;;;;;;;48.28;34.75;;;16.50;99.90;;;;;;5091785;28;20485;-69
2022/10/10 10:03:05;;;;;;;48.90;36.17;;;16.40;99.90;;;;;;5091851;28;20087;-69
2022/10/10 10:05:31;;;;;;;50.30;38.45;;;16.60;99.90;;;;;;5091716;28;20092;-72
2022/10/10 10:08:00;;;;;;;48.85;35.80;;;16.70;99.90;;;;;;5074342;28;20045;-71
2022/10/10 10:10:29;;;;;;;52.38;39.45;;;16.70;99.90;;;;;;5091180;28;20036;-70
2022/10/10 10:12:55;;;;;;;48.67;38.92;;;16.80;99.90;;;;;;5091362;28;20021;-72
2022/10/10 10:15:21;;;;;;;51.47;37.10;;;16.90;99.90;;;;;;5100642;28;20495;-71
2022/10/10 10:18:15;;;;;;;52.38;39.25;;;16.50;99.90;;;;;;5097512;28;20020;-69
2022/10/10 10:20:48;;;;;;;48.63;36.95;;;16.70;99.90;;;;;;5091654;28;20048;-71
2022/10/10 10:23:30;;;;;;;49.85;36.92;;;17.00;99.90;;;;;;5093350;28;20032;-69
2022/10/10 10:26:05;;;;;;;50.33;37.72;;;17.10;99.90;;;;;;5095236;28;20078;-69
2022/10/10 10:28:38;;;;;;;50.78;37.80;;;17.60;99.90;;;;;;5099485;28;20024;-69
2022/10/10 10:31:05;;;;;;;58.17;40.38;;;17.80;99.90;;;;;;5104622;28;20032;-69
2022/10/10 10:33:46;;;;;;;46.30;36.17;;;17.90;99.90;;;;;;5095288;28;20489;-69
2022/10/10 10:36:17;;;;;;;47.13;37.45;;;17.90;99.90;;;;;;5095015;28;20032;-72
2022/10/10 10:38:55;;;;;;;47.23;37.57;;;17.70;99.90;;;;;;5095338;28;20024;-71
2022/10/10 10:41:33;;;;;;;51.17;36.40;;;17.90;99.90;;;;;;5095264;28;20341;-72
2022/10/10 10:44:27;;;;;;;46.90;36.00;;;18.20;99.90;;;;;;5094721;28;20099;-70
2022/10/10 10:47:27;;;;;;;51.20;33.80;;;18.30;99.90;;;;;;5094714;28;20024;-72
2022/10/10 10:50:14;;;;;;;41.97;31.73;;;18.50;99.90;;;;;;5094625;28;20486;-72
2022/10/10 10:53:13;;;;;;;39.60;30.08;;;18.40;99.90;;;;;;5094845;28;20024;-72
2022/10/10 10:55:57;;;;;;;37.80;27.63;;;18.60;99.90;;;;;;5095163;28;20089;-72
2022/10/10 10:58:41;;;;;;;45.72;28.67;;;18.70;99.90;;;;;;5094886;28;20028;-71
2022/10/10 11:01:42;;;;;;;37.60;28.17;;;18.80;99.90;;;;;;5095130;28;20077;-72
2022/10/10 11:04:14;;;;;;;37.05;26.35;;;18.90;99.90;;;;;;5076630;28;20110;-69
2022/10/10 11:07:16;;;;;;;34.75;27.15;;;18.90;99.90;;;;;;5094529;28;20032;-69
2022/10/10 11:10:17;;;;;;;33.35;25.90;;;19.00;99.90;;;;;;5094425;28;20035;-70
2022/10/10 11:12:57;;;;;;;35.70;24.17;;;19.20;99.90;;;;;;5075820;28;20028;-69
2022/10/10 11:15:38;;;;;;;31.38;22.52;;;19.20;99.90;;;;;;5106127;28;20091;-70
2022/10/10 11:18:17;;;;;;;29.60;22.45;;;19.20;99.90;;;;;;5083093;28;20492;-69
2022/10/10 11:20:59;;;;;;;36.95;25.33;;;19.10;99.90;;;;;;5098866;28;20482;-68
2022/10/10 11:23:52;;;;;;;28.45;23.45;;;19.30;99.90;;;;;;5099491;28;20423;-70
2022/10/10 11:26:38;;;;;;;35.65;24.73;;;19.40;99.90;;;;;;5031545;28;20402;-70
2022/10/10 11:29:12;;;;;;;32.67;24.55;;;19.50;99.90;;;;;;5046828;28;20246;-71
2022/10/10 11:31:50;;;;;;;30.08;24.65;;;19.60;99.90;;;;;;5036550;28;20447;-70
2022/10/10 11:34:42;;;;;;;28.15;22.42;;;19.70;99.90;;;;;;5036205;28;20132;-70
2022/10/10 11:37:18;;;;;;;26.90;22.88;;;19.80;99.90;;;;;;5022495;28;20493;-68
2022/10/10 11:39:55;;;;;;;29.08;23.10;;;20.00;99.90;;;;;;5035785;28;20546;-69
2022/10/10 11:42:45;;;;;;;29.92;24.38;;;20.10;99.90;;;;;;5035901;28;20053;-70
2022/10/10 11:45:21;;;;;;;30.85;22.85;;;20.20;99.90;;;;;;5019686;28;20509;-70
2022/10/10 11:47:57;;;;;;;30.20;22.42;;;20.10;99.90;;;;;;5031625;28;20037;-69
2022/10/10 11:50:33;;;;;;;40.28;26.25;;;20.20;99.90;;;;;;5030524;28;20550;-69
2022/10/10 11:53:29;;;;;;;40.78;23.38;;;20.10;99.90;;;;;;5031597;28;20033;-68
2022/10/10 11:56:06;;;;;;;29.73;22.85;;;20.20;99.90;;;;;;5031444;28;20045;-68
2022/10/10 11:58:35;;;;;;;26.15;20.27;;;20.30;99.90;;;;;;5031306;28;20120;-69
2022/10/10 12:01:30;;;;;;;28.42;22.08;;;20.20;99.90;;;;;;5031290;28;20025;-69
2022/10/10 12:03:58;;;;;;;28.17;21.60;;;20.20;99.90;;;;;;5093496;28;20038;-72
2022/10/10 12:06:43;;;;;;;32.65;23.85;;;20.10;99.90;;;;;;5093711;28;20535;-70
2022/10/10 12:09:35;;;;;;;32.25;25.38;;;20.10;99.90;;;;;;5107554;28;20069;-71
2022/10/10 12:12:03;;;;;;;;;;;20.00;99.90;;;;;;5075775;28;20032;-71
2022/10/10 12:14:31;;;;;;;29.08;22.45;;;20.10;99.90;;;;;;5099190;28;19967;-70
2022/10/10 12:16:58;;;;;;;30.83;23.75;;;20.10;99.90;;;;;;5112160;28;20032;-72
2022/10/10 12:19:27;;;;;;;30.00;22.30;;;20.20;99.90;;;;;;5095401;28;20501;-71
2022/10/10 12:21:58;;;;;;;33.35;24.33;;;20.20;99.90;;;;;;5074979;28;20427;-73
2022/10/10 12:24:30;;;;;;;35.20;25.30;;;20.20;99.90;;;;;;5089217;28;20496;-72
2022/10/10 12:26:56;;;;;;;32.72;24.63;;;20.20;99.90;;;;;;5082011;28;20024;-69
2022/10/10 12:29:55;;;;;;;33.63;24.80;;;20.20;99.90;;;;;;5098124;28;20488;-69
2022/10/10 12:32:53;;;;;;;31.13;25.70;;;20.10;99.90;;;;;;5098335;28;20051;-71
2022/10/10 12:35:38;;;;;;;31.50;24.85;;;19.90;99.90;;;;;;5096783;28;20035;-69
2022/10/10 12:38:28;;;;;;;27.85;24.33;;;20.10;99.90;;;;;;5093246;28;20027;-69
2022/10/10 12:41:05;;;;;;;28.63;22.42;;;20.10;99.90;;;;;;5072528;28;20047;-69
2022/10/10 12:43:51;;;;;;;28.85;22.90;;;20.20;99.90;;;;;;5079045;28;20043;-72
2022/10/10 12:46:19;;;;;;;26.60;20.75;;;20.30;99.90;;;;;;5096244;28;20372;-72
2022/10/10 12:48:58;;;;;;;24.15;19.98;;;20.30;99.90;;;;;;5079644;28;20067;-72
2022/10/10 12:51:25;;;;;;;30.13;20.75;;;20.40;99.90;;;;;;5096556;28;20077;-71
2022/10/10 12:54:00;;;;;;;25.63;19.88;;;20.50;99.90;;;;;;5094444;28;20048;-72